sensor_id;sensor_type;location;lat;lon;timestamp;temperature;humidity
1429;DHT22;708;51.442;7.016;2023-04-19T00:01:48;12.10;99.90
1429;DHT22;708;51.442;7.016;2023-04-19T00:04:15;12.00;99.90
1429;DHT22;708;51.442;7.016;2023-04-19T00:06:43;12.00;99.90
1429;DHT22;708;51.442;7.016;2023-04-19T00:09:10;12.00;1.00
1429;DHT22;708;51.442;7.016;2023-04-19T00:11:37;12.00;1.00
1429;DHT22;708;51.442;7.016;2023-04-19T00:14:04;12.00;1.00
1429;DHT22;708;51.442;7.016;2023-04-19T00:16:31;12.00;99.90
1429;DHT22;708;51.442;7.016;2023-04-19T00:18:58;12.00;99.90
1429;DHT22;708;51.442;7.016;2023-04-19T00:21:24;12.00;12.10
1429;DHT22;708;51.442;7.016;2023-04-19T00:23:53;12.00;99.90
1429;DHT22;708;51.442;7.016;2023-04-19T00:26:20;12.00;1.00
1429;DHT22;708;51.442;7.016;2023-04-19T00:28:46;12.10;1.00
1429;DHT22;708;51.442;7.016;2023-04-19T00:31:13;12.10;99.90
1429;DHT22;708;51.442;7.016;2023-04-19T00:33:40;12.00;99.90
1429;DHT22;708;51.442;7.016;2023-04-19T00:36:07;12.00;99.90
1429;DHT22;708;51.442;7.016;2023-04-19T00:38:35;12.10;1.00
1429;DHT22;708;51.442;7.016;2023-04-19T00:41:03;12.10;1.00
1429;DHT22;708;51.442;7.016;2023-04-19T00:43:29;12.10;19.50
1429;DHT22;708;51.442;7.016;2023-04-19T00:45:56;12.10;74.10
1429;DHT22;708;51.442;7.016;2023-04-19T00:48:23;12.10;99.90
1429;DHT22;708;51.442;7.016;2023-04-19T00:50:51;12.10;99.90
1429;DHT22;708;51.442;7.016;2023-04-19T00:53:17;12.00;1.00
1429;DHT22;708;51.442;7.016;2023-04-19T00:55:44;12.00;1.00
1429;DHT22;708;51.442;7.016;2023-04-19T00:58:13;12.00;11.90
1429;DHT22;708;51.442;7.016;2023-04-19T01:00:40;12.00;42.80
1429;DHT22;708;51.442;7.016;2023-04-19T01:03:07;11.90;35.70
1429;DHT22;708;51.442;7.016;2023-04-19T01:05:34;11.90;90.40
1429;DHT22;708;51.442;7.016;2023-04-19T01:08:01;12.00;98.20
1429;DHT22;708;51.442;7.016;2023-04-19T01:10:28;12.00;99.90
1429;DHT22;708;51.442;7.016;2023-04-19T01:12:55;12.00;62.00
1429;DHT22;708;51.442;7.016;2023-04-19T01:15:23;12.00;1.00
1429;DHT22;708;51.442;7.016;2023-04-19T01:17:50;12.00;1.00
1429;DHT22;708;51.442;7.016;2023-04-19T01:20:16;12.10;1.00
1429;DHT22;708;51.442;7.016;2023-04-19T01:22:45;12.00;1.00
1429;DHT22;708;51.442;7.016;2023-04-19T01:25:12;12.00;1.00
1429;DHT22;708;51.442;7.016;2023-04-19T01:27:39;12.00;24.40
1429;DHT22;708;51.442;7.016;2023-04-19T01:30:06;12.00;16.30
1429;DHT22;708;51.442;7.016;2023-04-19T01:32:33;12.10;1.00
1429;DHT22;708;51.442;7.016;2023-04-19T01:35:00;12.10;1.00
1429;DHT22;708;51.442;7.016;2023-04-19T01:37:27;12.10;1.00
1429;DHT22;708;51.442;7.016;2023-04-19T01:39:55;12.10;1.00
1429;DHT22;708;51.442;7.016;2023-04-19T01:42:22;12.20;1.00
1429;DHT22;708;51.442;7.016;2023-04-19T01:44:50;12.20;1.00
1429;DHT22;708;51.442;7.016;2023-04-19T01:47:17;12.20;99.90
1429;DHT22;708;51.442;7.016;2023-04-19T01:49:44;12.20;99.90
1429;DHT22;708;51.442;7.016;2023-04-19T01:52:10;12.20;99.90
1429;DHT22;708;51.442;7.016;2023-04-19T01:54:37;12.20;99.90
1429;DHT22;708;51.442;7.016;2023-04-19T01:57:05;12.30;74.70
1429;DHT22;708;51.442;7.016;2023-04-19T01:59:32;12.30;99.90
1429;DHT22;708;51.442;7.016;2023-04-19T02:01:59;12.30;82.00
1429;DHT22;708;51.442;7.016;2023-04-19T02:04:25;12.20;84.00
1429;DHT22;708;51.442;7.016;2023-04-19T02:06:52;12.20;93.70
1429;DHT22;708;51.442;7.016;2023-04-19T02:09:19;12.20;1.00
1429;DHT22;708;51.442;7.016;2023-04-19T02:11:45;12.20;99.90
1429;DHT22;708;51.442;7.016;2023-04-19T02:14:13;12.20;99.90
1429;DHT22;708;51.442;7.016;2023-04-19T02:16:40;12.10;1.00
1429;DHT22;708;51.442;7.016;2023-04-19T02:19:07;12.20;1.00
1429;DHT22;708;51.442;7.016;2023-04-19T02:21:34;12.20;99.90
1429;DHT22;708;51.442;7.016;2023-04-19T02:24:00;12.10;99.90
1429;DHT22;708;51.442;7.016;2023-04-19T02:26:27;12.10;34.70
1429;DHT22;708;51.442;7.016;2023-04-19T02:28:54;12.00;1.00
1429;DHT22;708;51.442;7.016;2023-04-19T02:31:22;12.00;15.20
1429;DHT22;708;51.442;7.016;2023-04-19T02:33:49;11.90;1.00
1429;DHT22;708;51.442;7.016;2023-04-19T02:36:15;12.00;1.00
1429;DHT22;708;51.442;7.016;2023-04-19T02:38:42;12.00;1.00
1429;DHT22;708;51.442;7.016;2023-04-19T02:41:09;12.00;99.90
1429;DHT22;708;51.442;7.016;2023-04-19T02:43:36;11.90;1.00
1429;DHT22;708;51.442;7.016;2023-04-19T02:46:02;11.90;1.00
1429;DHT22;708;51.442;7.016;2023-04-19T02:48:31;11.90;1.00
1429;DHT22;708;51.442;7.016;2023-04-19T02:50:58;11.90;99.90
1429;DHT22;708;51.442;7.016;2023-04-19T02:53:24;11.80;99.90
1429;DHT22;708;51.442;7.016;2023-04-19T02:55:51;11.80;99.90
1429;DHT22;708;51.442;7.016;2023-04-19T02:58:18;11.90;1.00
1429;DHT22;708;51.442;7.016;2023-04-19T03:00:44;11.90;99.90
1429;DHT22;708;51.442;7.016;2023-04-19T03:03:11;11.90;99.90
1429;DHT22;708;51.442;7.016;2023-04-19T03:05:39;11.90;51.30
1429;DHT22;708;51.442;7.016;2023-04-19T03:08:06;11.90;1.00
1429;DHT22;708;51.442;7.016;2023-04-19T03:10:35;11.90;99.90
1429;DHT22;708;51.442;7.016;2023-04-19T03:13:01;11.90;99.90
1429;DHT22;708;51.442;7.016;2023-04-19T03:15:28;11.90;26.40
1429;DHT22;708;51.442;7.016;2023-04-19T03:17:55;11.90;1.00
1429;DHT22;708;51.442;7.016;2023-04-19T03:20:22;12.00;1.00
1429;DHT22;708;51.442;7.016;2023-04-19T03:22:50;11.90;1.00
1429;DHT22;708;51.442;7.016;2023-04-19T03:25:17;12.00;99.90
1429;DHT22;708;51.442;7.016;2023-04-19T03:27:43;12.10;99.90
1429;DHT22;708;51.442;7.016;2023-04-19T03:30:12;12.00;99.90
1429;DHT22;708;51.442;7.016;2023-04-19T03:32:39;12.00;99.90
1429;DHT22;708;51.442;7.016;2023-04-19T03:35:07;11.90;1.00
1429;DHT22;708;51.442;7.016;2023-04-19T03:37:33;12.00;1.00
1429;DHT22;708;51.442;7.016;2023-04-19T03:40:02;12.00;99.90
1429;DHT22;708;51.442;7.016;2023-04-19T03:42:29;12.00;99.90
1429;DHT22;708;51.442;7.016;2023-04-19T03:44:56;12.00;99.90
1429;DHT22;708;51.442;7.016;2023-04-19T03:47:22;12.00;99.90
1429;DHT22;708;51.442;7.016;2023-04-19T03:49:49;12.00;99.90
1429;DHT22;708;51.442;7.016;2023-04-19T03:52:16;12.00;99.90
1429;DHT22;708;51.442;7.016;2023-04-19T03:54:42;11.90;99.90
1429;DHT22;708;51.442;7.016;2023-04-19T03:57:11;11.90;99.90
1429;DHT22;708;51.442;7.016;2023-04-19T03:59:39;11.90;99.90
1429;DHT22;708;51.442;7.016;2023-04-19T04:02:05;11.80;99.90
1429;DHT22;708;51.442;7.016;2023-04-19T04:04:33;11.80;99.90
1429;DHT22;708;51.442;7.016;2023-04-19T04:06:59;11.80;99.90
1429;DHT22;708;51.442;7.016;2023-04-19T04:09:26;11.80;99.90
1429;DHT22;708;51.442;7.016;2023-04-19T04:11:53;11.70;99.90
1429;DHT22;708;51.442;7.016;2023-04-19T04:14:22;11.70;77.00
1429;DHT22;708;51.442;7.016;2023-04-19T04:16:49;11.60;8.90
1429;DHT22;708;51.442;7.016;2023-04-19T04:19:16;11.50;1.00
1429;DHT22;708;51.442;7.016;2023-04-19T04:21:43;11.40;1.00
1429;DHT22;708;51.442;7.016;2023-04-19T04:24:09;11.20;1.00
1429;DHT22;708;51.442;7.016;2023-04-19T04:26:36;11.10;1.00
1429;DHT22;708;51.442;7.016;2023-04-19T04:29:07;11.00;1.00
1429;DHT22;708;51.442;7.016;2023-04-19T04:31:35;10.90;1.00
1429;DHT22;708;51.442;7.016;2023-04-19T04:34:02;10.90;1.00
1429;DHT22;708;51.442;7.016;2023-04-19T04:36:28;10.90;1.00
1429;DHT22;708;51.442;7.016;2023-04-19T04:38:55;10.80;1.00
1429;DHT22;708;51.442;7.016;2023-04-19T04:41:22;10.80;1.00
1429;DHT22;708;51.442;7.016;2023-04-19T04:43:49;10.70;1.00
1429;DHT22;708;51.442;7.016;2023-04-19T04:46:17;10.70;1.00
1429;DHT22;708;51.442;7.016;2023-04-19T04:48:46;10.70;1.00
1429;DHT22;708;51.442;7.016;2023-04-19T04:51:12;10.60;1.00
1429;DHT22;708;51.442;7.016;2023-04-19T04:53:39;10.60;1.00
1429;DHT22;708;51.442;7.016;2023-04-19T04:56:06;10.60;1.00
1429;DHT22;708;51.442;7.016;2023-04-19T04:58:33;10.60;99.90
1429;DHT22;708;51.442;7.016;2023-04-19T05:01:00;10.60;99.90
1429;DHT22;708;51.442;7.016;2023-04-19T05:03:31;10.60;99.90
1429;DHT22;708;51.442;7.016;2023-04-19T05:06:09;10.60;99.90
1429;DHT22;708;51.442;7.016;2023-04-19T05:08:38;10.60;99.90
1429;DHT22;708;51.442;7.016;2023-04-19T05:11:05;10.70;99.90
1429;DHT22;708;51.442;7.016;2023-04-19T05:13:31;10.60;99.90
1429;DHT22;708;51.442;7.016;2023-04-19T05:15:58;10.70;99.90
1429;DHT22;708;51.442;7.016;2023-04-19T05:18:25;10.70;99.90
1429;DHT22;708;51.442;7.016;2023-04-19T05:20:52;10.80;99.90
1429;DHT22;708;51.442;7.016;2023-04-19T05:23:20;10.80;99.90
1429;DHT22;708;51.442;7.016;2023-04-19T05:25:46;10.90;99.90
1429;DHT22;708;51.442;7.016;2023-04-19T05:28:13;11.20;99.90
1429;DHT22;708;51.442;7.016;2023-04-19T05:30:40;11.90;99.90
1429;DHT22;708;51.442;7.016;2023-04-19T05:33:07;12.60;99.90
1429;DHT22;708;51.442;7.016;2023-04-19T05:35:33;13.00;99.90
1429;DHT22;708;51.442;7.016;2023-04-19T05:38:00;13.10;99.90
1429;DHT22;708;51.442;7.016;2023-04-19T05:40:28;13.10;99.90
1429;DHT22;708;51.442;7.016;2023-04-19T05:42:55;13.30;99.90
1429;DHT22;708;51.442;7.016;2023-04-19T05:45:22;13.00;99.90
1429;DHT22;708;51.442;7.016;2023-04-19T05:47:49;12.70;99.90
1429;DHT22;708;51.442;7.016;2023-04-19T05:50:16;12.30;99.90
1429;DHT22;708;51.442;7.016;2023-04-19T05:52:44;12.10;99.90
1429;DHT22;708;51.442;7.016;2023-04-19T05:55:11;11.90;99.90
1429;DHT22;708;51.442;7.016;2023-04-19T05:57:39;11.70;99.90
1429;DHT22;708;51.442;7.016;2023-04-19T06:00:07;11.60;99.90
1429;DHT22;708;51.442;7.016;2023-04-19T06:02:35;11.50;99.90
1429;DHT22;708;51.442;7.016;2023-04-19T06:05:02;11.40;99.90
1429;DHT22;708;51.442;7.016;2023-04-19T06:07:29;11.20;99.90
1429;DHT22;708;51.442;7.016;2023-04-19T06:09:56;11.10;99.90
1429;DHT22;708;51.442;7.016;2023-04-19T06:12:23;11.00;99.90
1429;DHT22;708;51.442;7.016;2023-04-19T06:14:51;11.10;99.90
1429;DHT22;708;51.442;7.016;2023-04-19T06:17:18;11.10;99.90
1429;DHT22;708;51.442;7.016;2023-04-19T06:19:49;11.20;99.90
1429;DHT22;708;51.442;7.016;2023-04-19T06:22:16;11.50;99.90
1429;DHT22;708;51.442;7.016;2023-04-19T06:24:43;11.70;99.90
1429;DHT22;708;51.442;7.016;2023-04-19T06:27:10;11.90;99.90
1429;DHT22;708;51.442;7.016;2023-04-19T06:29:37;12.20;99.90
1429;DHT22;708;51.442;7.016;2023-04-19T06:32:05;12.60;99.90
1429;DHT22;708;51.442;7.016;2023-04-19T06:34:32;12.60;99.90
1429;DHT22;708;51.442;7.016;2023-04-19T06:36:59;12.80;99.90
1429;DHT22;708;51.442;7.016;2023-04-19T06:39:25;13.20;99.90
1429;DHT22;708;51.442;7.016;2023-04-19T06:41:52;13.70;99.90
1429;DHT22;708;51.442;7.016;2023-04-19T06:44:19;15.10;96.80
1429;DHT22;708;51.442;7.016;2023-04-19T06:46:46;16.00;91.90
1429;DHT22;708;51.442;7.016;2023-04-19T06:49:14;16.70;87.80
1429;DHT22;708;51.442;7.016;2023-04-19T06:51:41;17.20;82.60
1429;DHT22;708;51.442;7.016;2023-04-19T06:54:07;17.40;78.90
1429;DHT22;708;51.442;7.016;2023-04-19T06:56:42;17.50;75.70
1429;DHT22;708;51.442;7.016;2023-04-19T06:59:10;18.30;74.20
1429;DHT22;708;51.442;7.016;2023-04-19T07:01:37;18.30;72.20
1429;DHT22;708;51.442;7.016;2023-04-19T07:04:05;18.00;70.70
1429;DHT22;708;51.442;7.016;2023-04-19T07:06:33;18.50;68.50
1429;DHT22;708;51.442;7.016;2023-04-19T07:09:00;19.00;67.50
1429;DHT22;708;51.442;7.016;2023-04-19T07:11:28;19.30;65.30
1429;DHT22;708;51.442;7.016;2023-04-19T07:13:55;19.40;63.90
1429;DHT22;708;51.442;7.016;2023-04-19T07:16:21;19.80;62.00
1429;DHT22;708;51.442;7.016;2023-04-19T07:18:50;19.90;60.60
1429;DHT22;708;51.442;7.016;2023-04-19T07:21:17;20.10;59.70
1429;DHT22;708;51.442;7.016;2023-04-19T07:23:45;20.30;58.80
1429;DHT22;708;51.442;7.016;2023-04-19T07:26:12;20.20;57.30
1429;DHT22;708;51.442;7.016;2023-04-19T07:28:39;20.00;55.90
1429;DHT22;708;51.442;7.016;2023-04-19T07:31:06;19.60;55.60
1429;DHT22;708;51.442;7.016;2023-04-19T07:33:33;19.40;55.50
1429;DHT22;708;51.442;7.016;2023-04-19T07:36:00;19.90;55.50
1429;DHT22;708;51.442;7.016;2023-04-19T07:38:27;20.80;54.20
1429;DHT22;708;51.442;7.016;2023-04-19T07:40:55;21.20;54.10
1429;DHT22;708;51.442;7.016;2023-04-19T07:43:21;21.50;52.00
1429;DHT22;708;51.442;7.016;2023-04-19T07:45:48;21.30;51.90
1429;DHT22;708;51.442;7.016;2023-04-19T07:48:15;21.00;60.90
1429;DHT22;708;51.442;7.016;2023-04-19T07:50:41;21.10;49.90
1429;DHT22;708;51.442;7.016;2023-04-19T07:53:08;20.80;48.90
1429;DHT22;708;51.442;7.016;2023-04-19T07:55:35;21.00;48.40
1429;DHT22;708;51.442;7.016;2023-04-19T07:58:03;21.10;47.60
1429;DHT22;708;51.442;7.016;2023-04-19T08:00:30;21.00;46.90
1429;DHT22;708;51.442;7.016;2023-04-19T08:02:59;20.90;46.60
1429;DHT22;708;51.442;7.016;2023-04-19T08:05:26;21.30;46.60
1429;DHT22;708;51.442;7.016;2023-04-19T08:07:53;21.10;46.10
1429;DHT22;708;51.442;7.016;2023-04-19T08:10:19;21.00;45.10
1429;DHT22;708;51.442;7.016;2023-04-19T08:12:46;20.90;44.30
1429;DHT22;708;51.442;7.016;2023-04-19T08:15:15;21.30;44.70
1429;DHT22;708;51.442;7.016;2023-04-19T08:17:42;21.90;44.90
1429;DHT22;708;51.442;7.016;2023-04-19T08:20:10;21.90;43.40
1429;DHT22;708;51.442;7.016;2023-04-19T08:22:37;22.10;43.20
1429;DHT22;708;51.442;7.016;2023-04-19T08:25:06;21.70;42.30
1429;DHT22;708;51.442;7.016;2023-04-19T08:27:33;21.60;42.80
1429;DHT22;708;51.442;7.016;2023-04-19T08:29:59;21.00;42.00
1429;DHT22;708;51.442;7.016;2023-04-19T08:32:27;21.30;40.60
1429;DHT22;708;51.442;7.016;2023-04-19T08:34:54;20.90;39.50
1429;DHT22;708;51.442;7.016;2023-04-19T08:37:21;21.10;40.50
1429;DHT22;708;51.442;7.016;2023-04-19T08:39:49;20.80;39.20
1429;DHT22;708;51.442;7.016;2023-04-19T08:42:15;20.50;39.10
1429;DHT22;708;51.442;7.016;2023-04-19T08:44:43;20.60;38.20
1429;DHT22;708;51.442;7.016;2023-04-19T08:47:11;20.00;38.70
1429;DHT22;708;51.442;7.016;2023-04-19T08:49:42;19.70;38.20
1429;DHT22;708;51.442;7.016;2023-04-19T08:52:12;19.40;38.20
1429;DHT22;708;51.442;7.016;2023-04-19T08:54:40;19.30;38.80
1429;DHT22;708;51.442;7.016;2023-04-19T08:57:07;19.30;38.40
1429;DHT22;708;51.442;7.016;2023-04-19T08:59:36;19.60;37.90
1429;DHT22;708;51.442;7.016;2023-04-19T09:02:03;19.30;37.60
1429;DHT22;708;51.442;7.016;2023-04-19T09:04:30;19.00;37.00
1429;DHT22;708;51.442;7.016;2023-04-19T09:06:58;18.80;37.30
1429;DHT22;708;51.442;7.016;2023-04-19T09:09:26;19.20;37.20
1429;DHT22;708;51.442;7.016;2023-04-19T09:11:53;19.50;36.70
1429;DHT22;708;51.442;7.016;2023-04-19T09:14:25;19.40;36.80
1429;DHT22;708;51.442;7.016;2023-04-19T09:16:52;19.40;36.60
1429;DHT22;708;51.442;7.016;2023-04-19T09:19:19;19.40;36.20
1429;DHT22;708;51.442;7.016;2023-04-19T09:21:46;20.00;36.40
1429;DHT22;708;51.442;7.016;2023-04-19T09:24:17;20.70;35.70
1429;DHT22;708;51.442;7.016;2023-04-19T09:26:53;20.90;36.20
1429;DHT22;708;51.442;7.016;2023-04-19T09:29:20;21.20;35.90
1429;DHT22;708;51.442;7.016;2023-04-19T09:31:57;20.60;35.00
1429;DHT22;708;51.442;7.016;2023-04-19T09:34:24;19.70;34.60
1429;DHT22;708;51.442;7.016;2023-04-19T09:36:54;19.10;34.50
1429;DHT22;708;51.442;7.016;2023-04-19T09:39:32;19.20;33.80
1429;DHT22;708;51.442;7.016;2023-04-19T09:42:00;19.00;32.80
1429;DHT22;708;51.442;7.016;2023-04-19T09:44:27;19.20;33.50
1429;DHT22;708;51.442;7.016;2023-04-19T09:46:54;18.80;32.70
1429;DHT22;708;51.442;7.016;2023-04-19T09:49:21;18.50;31.50
1429;DHT22;708;51.442;7.016;2023-04-19T09:51:50;18.20;31.60
1429;DHT22;708;51.442;7.016;2023-04-19T09:54:19;17.80;31.70
1429;DHT22;708;51.442;7.016;2023-04-19T09:56:48;17.80;31.80
1429;DHT22;708;51.442;7.016;2023-04-19T09:59:15;17.40;31.70
1429;DHT22;708;51.442;7.016;2023-04-19T10:01:45;17.50;31.40
1429;DHT22;708;51.442;7.016;2023-04-19T10:04:13;17.30;31.60
1429;DHT22;708;51.442;7.016;2023-04-19T10:09:13;16.80;25.40
1429;DHT22;708;51.442;7.016;2023-04-19T10:11:43;16.50;32.60
1429;DHT22;708;51.442;7.016;2023-04-19T10:14:15;16.10;32.20
1429;DHT22;708;51.442;7.016;2023-04-19T10:16:42;15.50;32.10
1429;DHT22;708;51.442;7.016;2023-04-19T10:19:11;15.30;33.20
1429;DHT22;708;51.442;7.016;2023-04-19T10:21:39;15.10;33.10
1429;DHT22;708;51.442;7.016;2023-04-19T10:24:07;15.00;33.50
1429;DHT22;708;51.442;7.016;2023-04-19T10:27:05;15.20;33.60
1429;DHT22;708;51.442;7.016;2023-04-19T10:29:59;15.00;34.20
1429;DHT22;708;51.442;7.016;2023-04-19T10:32:28;15.00;33.70
1429;DHT22;708;51.442;7.016;2023-04-19T10:35:00;14.80;33.70
1429;DHT22;708;51.442;7.016;2023-04-19T10:37:28;14.80;34.50
1429;DHT22;708;51.442;7.016;2023-04-19T10:39:56;14.80;34.20
1429;DHT22;708;51.442;7.016;2023-04-19T10:42:23;14.50;34.70
1429;DHT22;708;51.442;7.016;2023-04-19T10:47:56;14.10;34.70
1429;DHT22;708;51.442;7.016;2023-04-19T10:50:23;13.90;34.80
1429;DHT22;708;51.442;7.016;2023-04-19T10:52:50;13.80;45.80
1429;DHT22;708;51.442;7.016;2023-04-19T10:55:18;13.70;35.20
1429;DHT22;708;51.442;7.016;2023-04-19T10:58:01;13.40;34.60
1429;DHT22;708;51.442;7.016;2023-04-19T11:00:29;13.20;35.00
1429;DHT22;708;51.442;7.016;2023-04-19T11:02:59;13.40;35.50
1429;DHT22;708;51.442;7.016;2023-04-19T11:08:47;13.60;34.70
1429;DHT22;708;51.442;7.016;2023-04-19T11:11:14;13.70;35.40
1429;DHT22;708;51.442;7.016;2023-04-19T11:13:41;13.70;34.90
1429;DHT22;708;51.442;7.016;2023-04-19T11:16:08;13.70;34.80
1429;DHT22;708;51.442;7.016;2023-04-19T11:18:35;13.70;34.10
1429;DHT22;708;51.442;7.016;2023-04-19T11:21:02;13.80;34.50
1429;DHT22;708;51.442;7.016;2023-04-19T11:23:29;13.80;33.60
1429;DHT22;708;51.442;7.016;2023-04-19T11:25:58;13.80;34.00
1429;DHT22;708;51.442;7.016;2023-04-19T11:28:25;13.80;34.20
1429;DHT22;708;51.442;7.016;2023-04-19T11:30:52;14.00;35.70
1429;DHT22;708;51.442;7.016;2023-04-19T11:33:19;14.00;34.30
1429;DHT22;708;51.442;7.016;2023-04-19T11:35:49;14.10;34.50
1429;DHT22;708;51.442;7.016;2023-04-19T11:38:16;14.10;34.20
1429;DHT22;708;51.442;7.016;2023-04-19T11:40:43;14.20;35.00
1429;DHT22;708;51.442;7.016;2023-04-19T11:43:11;14.20;34.50
1429;DHT22;708;51.442;7.016;2023-04-19T11:45:38;14.20;34.60
1429;DHT22;708;51.442;7.016;2023-04-19T11:48:05;14.20;34.00
1429;DHT22;708;51.442;7.016;2023-04-19T11:50:34;14.20;34.60
1429;DHT22;708;51.442;7.016;2023-04-19T11:53:10;14.20;33.90
1429;DHT22;708;51.442;7.016;2023-04-19T11:55:37;14.00;35.60
1429;DHT22;708;51.442;7.016;2023-04-19T11:58:06;13.90;34.50
1429;DHT22;708;51.442;7.016;2023-04-19T12:00:35;14.00;34.20
1429;DHT22;708;51.442;7.016;2023-04-19T12:03:03;14.00;34.20
1429;DHT22;708;51.442;7.016;2023-04-19T12:05:35;13.90;33.60
1429;DHT22;708;51.442;7.016;2023-04-19T12:08:03;13.90;33.60
1429;DHT22;708;51.442;7.016;2023-04-19T12:10:33;14.10;33.00
1429;DHT22;708;51.442;7.016;2023-04-19T12:13:00;14.20;32.80
1429;DHT22;708;51.442;7.016;2023-04-19T12:15:41;14.30;36.70
1429;DHT22;708;51.442;7.016;2023-04-19T12:18:08;14.30;33.60
1429;DHT22;708;51.442;7.016;2023-04-19T12:20:38;14.30;33.30
1429;DHT22;708;51.442;7.016;2023-04-19T12:23:09;14.40;33.50
1429;DHT22;708;51.442;7.016;2023-04-19T12:25:38;14.60;33.30
1429;DHT22;708;51.442;7.016;2023-04-19T12:28:05;14.60;33.00
1429;DHT22;708;51.442;7.016;2023-04-19T12:30:32;14.70;32.80
1429;DHT22;708;51.442;7.016;2023-04-19T12:33:02;14.70;33.10
1429;DHT22;708;51.442;7.016;2023-04-19T12:35:29;14.70;32.50
1429;DHT22;708;51.442;7.016;2023-04-19T12:37:57;14.80;32.50
1429;DHT22;708;51.442;7.016;2023-04-19T12:40:25;14.90;32.60
1429;DHT22;708;51.442;7.016;2023-04-19T12:42:52;14.80;32.60
1429;DHT22;708;51.442;7.016;2023-04-19T12:45:20;14.70;32.50
1429;DHT22;708;51.442;7.016;2023-04-19T12:47:47;14.80;33.10
1429;DHT22;708;51.442;7.016;2023-04-19T12:50:15;14.90;32.50
1429;DHT22;708;51.442;7.016;2023-04-19T12:52:43;15.00;32.70
1429;DHT22;708;51.442;7.016;2023-04-19T12:55:10;15.10;33.50
1429;DHT22;708;51.442;7.016;2023-04-19T12:57:37;15.10;32.70
1429;DHT22;708;51.442;7.016;2023-04-19T13:00:05;15.10;31.70
1429;DHT22;708;51.442;7.016;2023-04-19T13:02:34;15.00;31.40
1429;DHT22;708;51.442;7.016;2023-04-19T13:05:01;14.70;31.60
1429;DHT22;708;51.442;7.016;2023-04-19T13:07:31;14.70;31.70
1429;DHT22;708;51.442;7.016;2023-04-19T13:09:59;14.60;31.70
1429;DHT22;708;51.442;7.016;2023-04-19T13:12:27;14.70;32.10
1429;DHT22;708;51.442;7.016;2023-04-19T13:14:54;14.80;32.30
1429;DHT22;708;51.442;7.016;2023-04-19T13:17:21;14.90;31.50
1429;DHT22;708;51.442;7.016;2023-04-19T13:19:48;14.90;31.80
1429;DHT22;708;51.442;7.016;2023-04-19T13:22:15;14.90;31.70
1429;DHT22;708;51.442;7.016;2023-04-19T13:24:43;14.90;32.00
1429;DHT22;708;51.442;7.016;2023-04-19T13:27:10;14.90;31.70
1429;DHT22;708;51.442;7.016;2023-04-19T13:29:37;14.90;31.60
1429;DHT22;708;51.442;7.016;2023-04-19T13:32:04;14.90;30.90
1429;DHT22;708;51.442;7.016;2023-04-19T13:34:36;15.00;30.70
1429;DHT22;708;51.442;7.016;2023-04-19T13:37:03;15.20;30.70
1429;DHT22;708;51.442;7.016;2023-04-19T13:39:30;15.10;31.10
1429;DHT22;708;51.442;7.016;2023-04-19T13:41:58;14.90;31.40
1429;DHT22;708;51.442;7.016;2023-04-19T13:44:26;15.00;30.80
1429;DHT22;708;51.442;7.016;2023-04-19T13:46:53;15.10;30.90
1429;DHT22;708;51.442;7.016;2023-04-19T13:49:20;15.00;30.70
1429;DHT22;708;51.442;7.016;2023-04-19T13:51:46;14.90;30.50
1429;DHT22;708;51.442;7.016;2023-04-19T13:54:13;15.00;29.60
1429;DHT22;708;51.442;7.016;2023-04-19T13:56:41;15.10;29.20
1429;DHT22;708;51.442;7.016;2023-04-19T13:59:09;15.10;29.60
1429;DHT22;708;51.442;7.016;2023-04-19T14:01:37;15.10;29.50
1429;DHT22;708;51.442;7.016;2023-04-19T14:04:04;15.20;29.20
1429;DHT22;708;51.442;7.016;2023-04-19T14:06:31;15.20;28.70
1429;DHT22;708;51.442;7.016;2023-04-19T14:08:57;15.30;29.70
1429;DHT22;708;51.442;7.016;2023-04-19T14:11:24;15.30;29.70
1429;DHT22;708;51.442;7.016;2023-04-19T14:13:51;15.40;29.50
1429;DHT22;708;51.442;7.016;2023-04-19T14:16:20;15.50;28.70
1429;DHT22;708;51.442;7.016;2023-04-19T14:18:48;15.60;28.70
1429;DHT22;708;51.442;7.016;2023-04-19T14:21:15;15.40;28.90
1429;DHT22;708;51.442;7.016;2023-04-19T14:23:42;15.50;28.40
1429;DHT22;708;51.442;7.016;2023-04-19T14:26:09;15.40;38.60
1429;DHT22;708;51.442;7.016;2023-04-19T14:28:37;15.40;28.00
1429;DHT22;708;51.442;7.016;2023-04-19T14:31:03;15.30;28.10
1429;DHT22;708;51.442;7.016;2023-04-19T14:33:32;15.30;28.10
1429;DHT22;708;51.442;7.016;2023-04-19T14:35:59;15.20;28.30
1429;DHT22;708;51.442;7.016;2023-04-19T14:38:26;15.20;28.60
1429;DHT22;708;51.442;7.016;2023-04-19T14:40:53;15.20;27.90
1429;DHT22;708;51.442;7.016;2023-04-19T14:43:21;15.00;28.00
1429;DHT22;708;51.442;7.016;2023-04-19T14:45:51;15.20;27.70
1429;DHT22;708;51.442;7.016;2023-04-19T14:48:18;15.30;28.00
1429;DHT22;708;51.442;7.016;2023-04-19T14:50:46;15.20;27.80
1429;DHT22;708;51.442;7.016;2023-04-19T14:53:13;15.30;28.20
1429;DHT22;708;51.442;7.016;2023-04-19T14:55:40;15.10;27.90
1429;DHT22;708;51.442;7.016;2023-04-19T14:58:07;15.10;27.90
1429;DHT22;708;51.442;7.016;2023-04-19T15:00:34;15.10;27.50
1429;DHT22;708;51.442;7.016;2023-04-19T15:03:01;15.10;27.50
1429;DHT22;708;51.442;7.016;2023-04-19T15:05:28;15.00;27.90
1429;DHT22;708;51.442;7.016;2023-04-19T15:07:56;15.00;28.10
1429;DHT22;708;51.442;7.016;2023-04-19T15:10:22;15.00;27.80
1429;DHT22;708;51.442;7.016;2023-04-19T15:12:49;15.00;27.60
1429;DHT22;708;51.442;7.016;2023-04-19T15:15:16;15.10;27.80
1429;DHT22;708;51.442;7.016;2023-04-19T15:17:43;15.20;27.60
1429;DHT22;708;51.442;7.016;2023-04-19T15:20:11;15.30;27.80
1429;DHT22;708;51.442;7.016;2023-04-19T15:22:37;15.40;27.30
1429;DHT22;708;51.442;7.016;2023-04-19T15:25:06;15.30;26.80
1429;DHT22;708;51.442;7.016;2023-04-19T15:27:33;15.30;27.30
1429;DHT22;708;51.442;7.016;2023-04-19T15:30:00;15.30;27.10
1429;DHT22;708;51.442;7.016;2023-04-19T15:32:26;15.10;27.50
1429;DHT22;708;51.442;7.016;2023-04-19T15:34:55;15.10;27.20
1429;DHT22;708;51.442;7.016;2023-04-19T15:37:22;15.20;27.10
1429;DHT22;708;51.442;7.016;2023-04-19T15:39:48;15.30;27.80
1429;DHT22;708;51.442;7.016;2023-04-19T15:42:16;15.40;27.60
1429;DHT22;708;51.442;7.016;2023-04-19T15:44:43;15.40;27.10
1429;DHT22;708;51.442;7.016;2023-04-19T15:47:10;15.30;27.00
1429;DHT22;708;51.442;7.016;2023-04-19T15:49:37;15.10;27.10
1429;DHT22;708;51.442;7.016;2023-04-19T15:52:05;15.20;26.90
1429;DHT22;708;51.442;7.016;2023-04-19T15:54:31;15.30;27.00
1429;DHT22;708;51.442;7.016;2023-04-19T15:56:58;15.30;26.60
1429;DHT22;708;51.442;7.016;2023-04-19T15:59:27;15.30;26.60
1429;DHT22;708;51.442;7.016;2023-04-19T16:01:54;15.20;26.40
1429;DHT22;708;51.442;7.016;2023-04-19T16:04:20;15.10;26.70
1429;DHT22;708;51.442;7.016;2023-04-19T16:06:47;15.10;25.90
1429;DHT22;708;51.442;7.016;2023-04-19T16:09:14;14.90;25.90
1429;DHT22;708;51.442;7.016;2023-04-19T16:11:41;14.90;25.80
1429;DHT22;708;51.442;7.016;2023-04-19T16:14:07;14.80;25.60
1429;DHT22;708;51.442;7.016;2023-04-19T16:16:36;14.80;26.10
1429;DHT22;708;51.442;7.016;2023-04-19T16:19:02;14.80;26.50
1429;DHT22;708;51.442;7.016;2023-04-19T16:21:29;14.80;29.50
1429;DHT22;708;51.442;7.016;2023-04-19T16:23:56;14.80;25.30
1429;DHT22;708;51.442;7.016;2023-04-19T16:26:23;14.80;25.40
1429;DHT22;708;51.442;7.016;2023-04-19T16:28:50;14.80;25.60
1429;DHT22;708;51.442;7.016;2023-04-19T16:31:17;14.70;25.60